KAAO

Details ICAO KAAO
Name Colonel James Jabara
Region United States
Timezone America/Chicago (UTC-5.0)
Plans Departing 33
Arriving 33
Stats Elevation 1,421 ft / 433 m (AMSL)
Location 37.747575° -97.221116°
Runways 1
Magnetic Variation 3.478° E
Sunrise 2018-05-23 11:14:38 UTC / 2018-05-23 06:14:38 Local
Sunset 2018-05-24 01:39:32 UTC / 2018-05-23 20:39:32 Local
Advertisement - Login to hide

Runways

ID Width Length Bearing (true) Bearing (mag) Surface Threshold Offset Overrun Length
18 98 ft / 30 m 6,112 ft / 1,863 m 186.81° 183.33° Concrete 0 ft / 0 m 0 ft / 0 m
36 98 ft / 30 m 6,112 ft / 1,863 m 6.81° 3.33° Concrete 0 ft / 0 m 0 ft / 0 m

Map

Weather


0- 5 10 15 20 25 30 35+ Temperature / ° C

Clouds and Precipitation
Forecast for 2018-05-23 12:00 UTC. Updated 2 hours ago

Ground ~20,000 ft ~40,000 ft Winds

METAR

KAAO 230954Z AUTO 14004KT 10SM CLR 19/19 A3002 RMK AO2 SLP152 T01940194

TAF

Not found

Frequencies

Recorded 123.88 MHz AWOS
Clearance 125.00 MHz Clearance Delivery
Departure 134.80 MHz Wichita Departure
Unicom 122.70 MHz CTAF
Approach 134.80 MHz Wichita Approach
Warning: Do not use this data for real-world aviation or navigation. No guarantee of current accuracy is given.